Time;durP1;ratioP1;P1;durP2;ratioP2;P2;SDS_P1;SDS_P2;PMS_P1;PMS_P2;Temp;Humidity;BMP_temperature;BMP_pressure;BME280_temperature;BME280_humidity;BME280_pressure;Samples;Min_cycle;Max_cycle;Signal;HPM_P1;HPM_P2
2023/01/05 00:01:58;;;;;;;14.53;10.00;;;;;;;6.69;100.00;99168.30;1668445;86;27497;-45
2023/01/05 00:04:24;;;;;;;14.75;9.80;;;;;;;6.71;100.00;99171.50;1668359;86;25629;-45
2023/01/05 00:06:52;;;;;;;16.55;12.50;;;;;;;6.73;100.00;99156.63;1668481;86;25407;-46
2023/01/05 00:09:20;;;;;;;12.23;9.30;;;;;;;6.77;100.00;99160.05;1668418;86;26050;-45
2023/01/05 00:23:14;;;;;;;13.70;10.60;;;;;;;6.89;100.00;99138.73;1699121;84;25811;-47
2023/01/05 00:25:42;;;;;;;18.98;12.05;;;;;;;6.92;100.00;99148.87;1699158;84;25488;-48
2023/01/05 00:28:09;;;;;;;14.07;11.28;;;;;;;6.94;100.00;99126.49;1699028;84;27525;-45
2023/01/05 00:30:43;;;;;;;16.42;12.50;;;;;;;6.97;100.00;99120.49;1698929;84;25479;-45
2023/01/05 00:33:16;;;;;;;15.32;10.63;;;;;;;6.99;100.00;99129.03;1699238;84;25745;-45
2023/01/05 00:35:47;;;;;;;14.18;10.82;;;;;;;7.03;100.00;99127.85;1699023;84;25713;-46
2023/01/05 00:38:13;;;;;;;13.30;11.12;;;;;;;7.04;100.00;99124.85;1699118;84;25486;-45
2023/01/05 00:40:40;;;;;;;16.30;10.65;;;;;;;7.04;100.00;99126.19;1699100;84;27438;-46
2023/01/05 00:43:06;;;;;;;17.52;12.30;;;;;;;7.08;100.00;99131.73;1699012;84;25479;-47
2023/01/05 00:45:32;;;;;;;17.73;12.78;;;;;;;7.09;100.00;99124.70;1699016;84;25401;-46
2023/01/05 00:48:00;;;;;;;16.40;10.98;;;;;;;7.14;100.00;99124.33;1698936;84;25924;-45
2023/01/05 00:50:29;;;;;;;15.55;11.75;;;;;;;7.17;100.00;99118.30;1699170;84;32401;-45
2023/01/05 00:52:57;;;;;;;11.97;10.10;;;;;;;7.19;100.00;99118.80;1699141;84;27606;-45
2023/01/05 00:55:23;;;;;;;13.25;11.00;;;;;;;7.20;100.00;99105.04;1698921;84;25595;-45
2023/01/05 00:57:50;;;;;;;14.05;10.43;;;;;;;7.23;100.00;99103.04;1699011;84;25417;-45
2023/01/05 01:00:21;;;;;;;13.22;9.33;;;;;;;7.25;100.00;99102.20;1698998;84;25565;-46
2023/01/05 01:02:52;;;;;;;12.13;9.60;;;;;;;7.27;100.00;99093.25;1699035;84;25561;-46
2023/01/05 01:05:24;;;;;;;12.47;9.23;;;;;;;7.31;100.00;99087.25;1699043;84;27448;-45
2023/01/05 01:07:52;;;;;;;11.22;9.15;;;;;;;7.34;100.00;99094.66;1698954;84;25620;-44
2023/01/05 01:10:21;;;;;;;11.28;9.45;;;;;;;7.35;100.00;99085.50;1699038;84;25436;-45
2023/01/05 01:12:48;;;;;;;11.78;9.15;;;;;;;7.36;100.00;99089.22;1699105;84;25538;-46
2023/01/05 01:15:22;;;;;;;12.55;9.40;;;;;;;7.38;100.00;99084.87;1699046;84;25593;-45
2023/01/05 01:17:48;;;;;;;11.73;9.43;;;;;;;7.38;100.00;99095.06;1697032;84;28222;-45
2023/01/05 01:20:19;;;;;;;13.58;9.03;;;;;;;7.39;100.00;99080.52;1690532;84;25987;-43
2023/01/05 01:22:45;;;;;;;13.75;9.40;;;;;;;7.40;100.00;99069.98;1686091;85;25500;-46
2023/01/05 01:25:16;;;;;;;11.30;8.63;;;;;;;7.41;100.00;99068.09;1686031;84;25692;-46
2023/01/05 01:27:43;;;;;;;11.57;8.55;;;;;;;7.41;100.00;99066.19;1686100;84;25442;-46
2023/01/05 01:30:10;;;;;;;12.18;8.80;;;;;;;7.43;100.00;99074.73;1685941;85;27611;-44
2023/01/05 01:32:37;;;;;;;12.95;8.45;;;;;;;7.43;100.00;99057.80;1666210;85;25669;-44
2023/01/05 01:35:10;;;;;;;10.75;9.23;;;;;;;7.42;100.00;99065.09;1685971;85;25609;-47
2023/01/05 01:37:37;;;;;;;12.50;9.33;;;;;;;7.42;100.00;99057.02;1685983;85;25588;-45
2023/01/05 01:40:12;;;;;;;10.53;7.95;;;;;;;7.41;100.00;99050.05;1686147;85;25641;-46
2023/01/05 01:42:38;;;;;;;11.30;8.58;;;;;;;7.40;100.00;99053.84;1686071;85;27530;-46
2023/01/05 01:45:25;;;;;;;8.95;7.47;;;;;;;7.40;100.00;99055.17;1685950;85;25716;-48
2023/01/05 01:47:58;;;;;;;8.25;7.45;;;;;;;7.41;100.00;99058.68;1686107;85;25687;-48
2023/01/05 01:50:32;;;;;;;9.40;7.97;;;;;;;7.39;100.00;99050.92;1686067;85;27717;-48
2023/01/05 01:53:06;;;;;;;11.18;7.45;;;;;;;7.39;100.00;99045.55;1684834;84;25599;-48
2023/01/05 01:55:36;;;;;;;9.80;6.83;;;;;;;7.38;100.00;99042.61;1685252;84;27624;-48
2023/01/05 01:58:10;;;;;;;8.23;6.95;;;;;;;7.39;100.00;99042.05;1686057;85;25560;-48
2023/01/05 02:00:40;;;;;;;8.70;7.28;;;;;;;7.38;100.00;99039.14;1686286;84;25618;-49
2023/01/05 02:03:10;;;;;;;12.45;7.58;;;;;;;7.39;100.00;99044.20;1690565;84;25695;-48
2023/01/05 02:05:38;;;;;;;8.95;7.25;;;;;;;7.39;100.00;99035.31;1690521;84;25426;-48
2023/01/05 02:08:15;;;;;;;8.13;6.90;;;;;;;7.41;100.00;99022.36;1686074;85;27608;-48
2023/01/05 02:11:29;;;;;;;8.78;6.95;;;;;;;7.43;100.00;99008.03;1685959;85;25935;-52
2023/01/05 02:14:19;;;;;;;9.30;6.37;;;;;;;7.44;100.00;99013.62;1686069;84;25595;-49
2023/01/05 02:17:15;;;;;;;7.15;5.83;;;;;;;7.44;100.00;99004.22;1690601;84;25585;-48
2023/01/05 02:20:29;;;;;;;7.85;6.10;;;;;;;7.45;100.00;99009.28;1671543;84;25603;-48
2023/01/05 02:23:28;;;;;;;9.63;6.03;;;;;;;7.46;100.00;99007.40;1653299;86;27478;-47
2023/01/05 02:26:15;;;;;;;6.50;5.85;;;;;;;7.46;100.00;98998.77;1652166;86;26018;-48
2023/01/05 02:28:53;;;;;;;8.38;6.30;;;;;;;7.46;100.00;99004.14;1649945;86;25910;-47
2023/01/05 02:31:25;;;;;;;6.90;6.20;;;;;;;7.47;100.00;98999.02;1654002;86;25604;-47
2023/01/05 02:34:19;;;;;;;6.35;5.65;;;;;;;7.50;100.00;98988.71;1654139;86;25703;-47
2023/01/05 02:37:08;;;;;;;7.08;5.90;;;;;;;7.50;100.00;98994.87;1654146;86;27487;-47
2023/01/05 02:39:52;;;;;;;10.65;6.03;;;;;;;7.51;100.00;98985.70;1654218;86;25736;-49
2023/01/05 02:42:26;;;;;;;9.38;5.95;;;;;;;7.54;100.00;98987.73;1654183;86;25431;-48
2023/01/05 02:44:54;;;;;;;7.50;6.17;;;;;;;7.54;100.00;98974.84;1654193;86;25586;-49
2023/01/05 02:47:38;;;;;;;6.42;5.70;;;;;;;7.54;100.00;98979.66;1654141;86;25570;-46
2023/01/05 02:50:47;;;;;;;8.98;6.28;;;;;;;7.56;100.00;98973.96;1653874;86;27508;-48
2023/01/05 02:53:31;;;;;;;7.80;5.37;;;;;;;7.58;100.00;98982.53;1652053;86;27478;-48
2023/01/05 02:56:09;;;;;;;5.92;4.70;;;;;;;7.58;100.00;98965.81;1651410;86;25593;-47
2023/01/05 02:58:44;;;;;;;6.78;5.00;;;;;;;7.59;100.00;98963.91;1654201;86;25667;-49
2023/01/05 03:01:18;;;;;;;7.58;5.58;;;;;;;7.60;100.00;98955.52;1654223;86;25810;-48
2023/01/05 03:04:03;;;;;;;6.30;4.83;;;;;;;7.60;100.00;98948.00;1654297;86;27588;-48
2023/01/05 03:06:47;;;;;;;7.80;4.90;;;;;;;7.61;100.00;98946.88;1653359;86;25654;-47
2023/01/05 03:09:18;;;;;;;7.30;5.45;;;;;;;7.61;100.00;98937.45;1654227;86;25226;-47
2023/01/05 03:14:59;;;;;;;6.83;4.95;;;;;;;7.62;100.00;98930.41;1654269;86;25423;-48
2023/01/05 03:17:31;;;;;;;8.43;4.90;;;;;;;7.63;100.00;98941.42;1654247;86;27367;-47
2023/01/05 03:20:01;;;;;;;8.53;5.30;;;;;;;7.65;100.00;98934.37;1672996;85;25576;-47
2023/01/05 03:37:33;;;;;;;9.83;6.17;;;;;;;7.65;100.00;98928.99;1679394;85;25491;-49
2023/01/05 03:40:07;;;;;;;7.65;5.85;;;;;;;7.64;100.00;98917.45;1679419;85;25265;-49
2023/01/05 03:42:37;;;;;;;8.70;6.75;;;;;;;7.65;100.00;98912.28;1679430;85;25500;-49
2023/01/05 03:45:12;;;;;;;8.03;6.67;;;;;;;7.66;100.00;98907.14;1679441;85;27245;-47
2023/01/05 03:47:38;;;;;;;8.73;6.10;;;;;;;7.66;100.00;98903.11;1679279;85;25797;-48
2023/01/05 03:50:12;;;;;;;6.47;5.33;;;;;;;7.67;100.00;98900.62;1679342;85;25622;-47
2023/01/05 03:52:38;;;;;;;6.83;5.00;;;;;;;7.69;100.00;98892.80;1679325;85;25526;-48
2023/01/05 03:55:09;;;;;;;5.90;4.70;;;;;;;7.68;100.00;98892.02;1679325;85;25422;-48
2023/01/05 03:57:35;;;;;;;7.05;4.60;;;;;;;7.69;100.00;98907.61;1679435;85;27530;-48
2023/01/05 04:00:11;;;;;;;5.92;4.25;;;;;;;7.70;100.00;98901.13;1649689;85;25713;-47
2023/01/05 04:02:37;;;;;;;5.92;4.30;;;;;;;7.69;100.00;98903.00;1651882;85;25602;-47
2023/01/05 04:05:11;;;;;;;6.62;3.98;;;;;;;7.68;100.00;98894.71;1679308;85;25480;-47
2023/01/05 04:07:39;;;;;;;4.95;3.70;;;;;;;7.66;100.00;98892.88;1679446;85;25605;-48
2023/01/05 04:10:09;;;;;;;3.83;3.47;;;;;;;7.63;100.00;98881.44;1679437;85;27354;-48
2023/01/05 04:12:36;;;;;;;5.30;3.72;;;;;;;7.62;100.00;98884.66;1679357;85;25665;-48
2023/01/05 04:15:11;;;;;;;5.15;3.67;;;;;;;7.61;100.00;98892.52;1679455;85;25570;-49
2023/01/05 04:17:37;;;;;;;4.28;3.42;;;;;;;7.61;100.00;98889.02;1679418;85;27494;-49
2023/01/05 04:20:12;;;;;;;4.87;3.27;;;;;;;7.60;100.00;98880.73;1679409;85;25483;-49
2023/01/05 04:22:41;;;;;;;4.47;3.25;;;;;;;7.59;100.00;98873.20;1679422;85;27419;-49
2023/01/05 04:25:12;;;;;;;4.22;3.00;;;;;;;7.58;100.00;98877.02;1679475;85;25577;-51
2023/01/05 04:27:38;;;;;;;5.55;2.70;;;;;;;7.57;100.00;98880.03;1679412;85;25452;-47
2023/01/05 04:30:12;;;;;;;6.58;4.37;;;;;;;7.55;100.00;98869.58;1679389;85;25444;-47
2023/01/05 04:32:38;;;;;;;3.55;2.55;;;;;;;7.54;100.00;98881.45;1679429;85;25625;-47
2023/01/05 04:35:09;;;;;;;3.65;2.77;;;;;;;7.52;100.00;98879.64;1679445;85;27266;-47
2023/01/05 04:37:35;;;;;;;3.12;2.55;;;;;;;7.51;100.00;98882.66;1679322;85;25467;-48
2023/01/05 04:40:01;;;;;;;4.08;2.52;;;;;;;7.50;100.00;98877.05;1679401;85;25455;-49
2023/01/05 04:42:27;;;;;;;4.62;2.70;;;;;;;7.50;100.00;98881.88;1679353;85;25490;-47
2023/01/05 04:44:53;;;;;;;3.15;2.85;;;;;;;7.48;100.00;98876.03;1679432;85;25637;-48
2023/01/05 04:47:19;;;;;;;2.83;2.50;;;;;;;7.45;100.00;98876.67;1679407;85;27407;-48
2023/01/05 04:49:45;;;;;;;3.08;2.42;;;;;;;7.44;100.00;98875.08;1679348;85;33285;-48
2023/01/05 04:52:12;;;;;;;4.15;3.00;;;;;;;7.42;100.00;98870.58;1679393;85;25638;-49
2023/01/05 04:54:38;;;;;;;3.65;3.05;;;;;;;7.41;100.00;98877.09;1679359;85;25685;-49
2023/01/05 04:57:04;;;;;;;2.95;2.72;;;;;;;7.38;100.00;98873.13;1679361;85;25476;-48
2023/01/05 04:59:31;;;;;;;5.05;2.98;;;;;;;7.36;100.00;98875.36;1679438;85;27433;-47
2023/01/05 05:01:58;;;;;;;3.70;3.22;;;;;;;7.34;100.00;98866.83;1679313;85;25637;-49
2023/01/05 05:04:24;;;;;;;3.90;2.77;;;;;;;7.34;100.00;98869.52;1679411;85;25576;-49
2023/01/05 05:06:53;;;;;;;2.98;2.67;;;;;;;7.33;100.00;98866.58;1679480;85;25468;-46
2023/01/05 05:09:22;;;;;;;4.90;3.58;;;;;;;7.31;100.00;98859.39;1679381;85;25571;-50
2023/01/05 05:11:48;;;;;;;4.17;3.30;;;;;;;7.31;100.00;98876.09;1679480;85;25828;-49
2023/01/05 05:14:15;;;;;;;3.42;2.92;;;;;;;7.28;100.00;98864.06;1679282;85;25673;-49
2023/01/05 05:16:41;;;;;;;3.87;3.47;;;;;;;7.26;100.00;98868.42;1679419;85;25601;-48
2023/01/05 05:19:10;;;;;;;5.75;5.33;;;;;;;7.25;100.00;98873.58;1678062;85;35241;-47
2023/01/05 05:21:36;;;;;;;4.83;4.42;;;;;;;7.25;100.00;98866.05;1672232;85;25421;-49
2023/01/05 05:24:09;;;;;;;5.60;4.05;;;;;;;7.24;100.00;98876.59;1672015;85;27406;-48
2023/01/05 05:26:36;;;;;;;6.08;5.42;;;;;;;7.23;100.00;98879.03;1671986;85;25641;-47
2023/01/05 05:29:02;;;;;;;5.50;5.00;;;;;;;7.23;100.00;98868.28;1672043;85;25641;-47
2023/01/05 05:31:28;;;;;;;13.98;12.95;;;;;;;7.22;100.00;98868.03;1672050;85;25424;-48
2023/01/05 05:33:54;;;;;;;13.62;12.68;;;;;;;7.23;100.00;98857.52;1672072;85;25581;-47
2023/01/05 05:36:20;;;;;;;5.55;5.08;;;;;;;7.23;100.00;98875.78;1672006;85;27356;-48
2023/01/05 05:38:48;;;;;;;3.40;2.90;;;;;;;7.24;100.00;98879.28;1646777;85;32845;-47
2023/01/05 05:41:15;;;;;;;4.95;3.60;;;;;;;7.24;100.00;98879.28;1671981;85;25685;-48
2023/01/05 05:43:41;;;;;;;6.30;3.67;;;;;;;7.23;100.00;98881.72;1671993;85;27653;-48
2023/01/05 05:46:09;;;;;;;6.03;5.42;;;;;;;7.27;100.00;98879.95;1672091;85;25578;-49
2023/01/05 05:48:37;;;;;;;5.72;3.98;;;;;;;7.27;100.00;98875.39;1671985;85;27435;-50
2023/01/05 05:51:06;;;;;;;4.92;4.22;;;;;;;7.28;100.00;98886.36;1671961;85;25492;-48
2023/01/05 05:53:33;;;;;;;8.83;8.18;;;;;;;7.28;100.00;98882.33;1672123;85;25788;-50
2023/01/05 05:55:59;;;;;;;4.65;3.92;;;;;;;7.28;100.00;98874.26;1671990;85;26019;-50
2023/01/05 05:58:25;;;;;;;6.40;5.80;;;;;;;7.27;100.00;98880.77;1672064;85;25506;-48
2023/01/05 06:01:00;;;;;;;6.35;5.28;;;;;;;7.26;100.00;98890.50;1672058;85;27426;-48
2023/01/05 06:03:28;;;;;;;6.22;4.25;;;;;;;7.27;100.00;98884.80;1671921;85;25583;-48
2023/01/05 06:05:55;;;;;;;4.80;4.33;;;;;;;7.25;100.00;98883.53;1672020;85;25776;-49
2023/01/05 06:08:21;;;;;;;6.78;5.05;;;;;;;7.21;100.00;98887.98;1671947;85;26071;-47
2023/01/05 06:10:50;;;;;;;6.60;6.00;;;;;;;7.23;100.00;98895.17;1672072;85;25592;-49
2023/01/05 06:13:18;;;;;;;5.15;4.25;;;;;;;7.21;100.00;98898.73;1672121;85;27319;-48
2023/01/05 06:15:44;;;;;;;7.20;5.67;;;;;;;7.21;100.00;98889.33;1671930;85;27266;-48
2023/01/05 06:18:10;;;;;;;5.10;4.70;;;;;;;7.20;100.00;98891.77;1671987;85;25637;-49
2023/01/05 06:20:37;;;;;;;4.90;4.37;;;;;;;7.18;100.00;98896.69;1676075;85;25609;-48
2023/01/05 06:23:07;;;;;;;3.98;3.55;;;;;;;7.17;100.00;98897.78;1679319;85;25645;-46
2023/01/05 06:25:35;;;;;;;6.75;3.83;;;;;;;7.18;100.00;98904.75;1679295;85;27356;-49
2023/01/05 06:28:05;;;;;;;3.20;2.92;;;;;;;7.15;100.00;98897.32;1679281;85;25497;-46
2023/01/05 06:30:33;;;;;;;4.97;4.08;;;;;;;7.15;100.00;98907.54;1679401;85;25426;-49
2023/01/05 06:32:59;;;;;;;3.50;3.17;;;;;;;7.14;100.00;98904.61;1679213;85;25571;-48
2023/01/05 06:35:26;;;;;;;4.15;3.70;;;;;;;7.13;100.00;98892.82;1679311;85;25722;-48
2023/01/05 06:37:52;;;;;;;6.90;5.62;;;;;;;7.11;100.00;98912.74;1679297;85;27350;-48
2023/01/05 06:40:18;;;;;;;5.05;4.30;;;;;;;7.11;100.00;98912.74;1679289;85;25402;-47
2023/01/05 06:42:44;;;;;;;4.90;3.12;;;;;;;7.11;100.00;98910.62;1679333;85;30032;-51
2023/01/05 06:45:17;;;;;;;4.78;3.37;;;;;;;7.09;100.00;98910.16;1679288;85;25480;-48
2023/01/05 06:47:47;;;;;;;3.95;3.58;;;;;;;7.09;100.00;98917.66;1651727;85;25535;-48
2023/01/05 06:50:13;;;;;;;7.30;6.60;;;;;;;7.09;100.00;98910.93;1679274;85;27431;-46
2023/01/05 06:52:39;;;;;;;5.42;4.33;;;;;;;7.10;100.00;98910.40;1679294;85;25588;-46
2023/01/05 06:55:11;;;;;;;7.05;5.22;;;;;;;7.11;100.00;98916.77;1679087;85;25540;-47
2023/01/05 06:57:40;;;;;;;4.90;3.45;;;;;;;7.10;100.00;98917.91;1678939;85;25603;-47
2023/01/05 07:00:15;;;;;;;9.38;3.77;;;;;;;7.11;100.00;98910.62;1679313;85;25547;-48
2023/01/05 07:02:43;;;;;;;6.37;4.55;;;;;;;7.11;100.00;98916.00;1679423;85;27349;-47
2023/01/05 07:05:10;;;;;;;6.60;4.55;;;;;;;7.09;100.00;98921.69;1679263;85;25649;-47
2023/01/05 07:07:38;;;;;;;5.40;4.45;;;;;;;7.10;100.00;98929.22;1679361;85;25610;-46
2023/01/05 07:10:09;;;;;;;4.67;3.20;;;;;;;7.10;100.00;98934.59;1679321;85;25585;-46
2023/01/05 07:12:36;;;;;;;5.55;3.52;;;;;;;7.09;100.00;98929.75;1679392;85;25692;-48
2023/01/05 07:15:11;;;;;;;7.28;5.03;;;;;;;7.09;100.00;98928.41;1679260;85;29566;-47
2023/01/05 07:17:37;;;;;;;7.17;5.10;;;;;;;7.09;100.00;98935.13;1679288;85;25560;-50
2023/01/05 07:20:10;;;;;;;7.20;5.47;;;;;;;7.08;100.00;98936.79;1677774;85;25483;-49
2023/01/05 07:22:36;;;;;;;4.03;3.52;;;;;;;7.09;100.00;98931.09;1671970;85;25541;-48
2023/01/05 07:25:07;;;;;;;5.08;3.60;;;;;;;7.07;100.00;98946.77;1672044;85;25439;-47
2023/01/05 07:27:35;;;;;;;5.00;3.35;;;;;;;7.08;100.00;98938.14;1672007;85;27328;-47
2023/01/05 07:30:08;;;;;;;6.15;2.77;;;;;;;7.09;100.00;98931.09;1671830;85;25476;-47
2023/01/05 07:32:38;;;;;;;8.93;3.80;;;;;;;7.10;100.00;98944.02;1671499;85;25630;-48
2023/01/05 07:35:10;;;;;;;3.83;2.52;;;;;;;7.09;100.00;98943.20;1671935;85;25483;-48
2023/01/05 07:37:36;;;;;;;5.67;3.17;;;;;;;7.10;100.00;98944.79;1672096;85;25427;-48
2023/01/05 07:40:11;;;;;;;3.77;2.85;;;;;;;7.13;100.00;98939.31;1672062;85;27290;-48
2023/01/05 07:42:37;;;;;;;4.92;3.20;;;;;;;7.14;100.00;98936.88;1672096;85;25493;-48
2023/01/05 07:45:11;;;;;;;4.33;3.33;;;;;;;7.15;100.00;98930.93;1672180;85;29952;-48
2023/01/05 07:47:42;;;;;;;4.92;3.20;;;;;;;7.16;100.00;98924.45;1672057;85;27565;-50
2023/01/05 07:50:15;;;;;;;8.13;4.20;;;;;;;7.19;100.00;98937.27;1672140;85;25623;-48
2023/01/05 07:52:41;;;;;;;5.22;4.50;;;;;;;7.18;100.00;98930.30;1672113;85;27404;-51
2023/01/05 07:55:09;;;;;;;7.05;4.50;;;;;;;7.18;100.00;98937.80;1671063;85;27266;-48
2023/01/05 07:57:36;;;;;;;6.83;4.90;;;;;;;7.20;100.00;98934.27;1672305;85;25649;-49
2023/01/05 08:00:13;;;;;;;8.18;5.70;;;;;;;7.20;100.00;98932.92;1672067;85;25621;-47
2023/01/05 08:02:41;;;;;;;8.88;7.03;;;;;;;7.21;100.00;98928.33;1672225;85;25488;-49
2023/01/05 08:05:10;;;;;;;8.60;5.60;;;;;;;7.22;100.00;98937.95;1672129;85;27311;-50
2023/01/05 08:07:39;;;;;;;7.95;5.87;;;;;;;7.24;100.00;98939.23;1647775;85;25658;-48
2023/01/05 08:10:28;;;;;;;14.03;8.90;;;;;;;7.25;100.00;98940.82;1672168;85;25644;-51
2023/01/05 08:15:55;;;;;;;10.45;9.40;;;;;;;7.27;100.00;98941.28;1646910;85;25519;-50
2023/01/05 08:18:23;;;;;;;22.07;20.37;;;;;;;7.27;100.00;98941.28;1672120;85;27414;-48
2023/01/05 08:20:58;;;;;;;24.25;15.53;;;;;;;7.29;100.00;98940.97;1671844;85;25642;-51
2023/01/05 08:23:31;;;;;;;25.43;23.30;;;;;;;7.28;100.00;98942.06;1672177;85;25589;-51
2023/01/05 08:26:07;;;;;;;15.90;14.68;;;;;;;7.32;100.00;98936.30;1672088;85;25533;-47
2023/01/05 08:28:42;;;;;;;13.05;12.05;;;;;;;7.33;100.00;98940.55;1672152;85;25649;-50
2023/01/05 08:31:17;;;;;;;39.73;36.68;;;;;;;7.34;100.00;98942.14;1672167;85;28004;-48
2023/01/05 08:33:47;;;;;;;12.88;11.43;;;;;;;7.37;100.00;98942.85;1672054;85;25434;-49
2023/01/05 08:36:19;;;;;;;6.75;5.97;;;;;;;7.39;100.00;98950.58;1672117;85;25535;-48
2023/01/05 08:38:54;;;;;;;11.28;4.65;;;;;;;7.40;100.00;98955.64;1672287;85;25877;-49
2023/01/05 08:41:30;;;;;;;9.68;7.08;;;;;;;7.38;100.00;98944.42;1672155;85;25480;-52
2023/01/05 08:44:05;;;;;;;12.10;10.85;;;;;;;7.41;100.00;98952.41;1671009;85;28183;-49
2023/01/05 08:46:40;;;;;;;13.22;9.05;;;;;;;7.42;100.00;98961.52;1672024;85;25881;-46
2023/01/05 08:49:10;;;;;;;13.95;6.72;;;;;;;7.43;100.00;98958.27;1672081;85;25475;-47
2023/01/05 08:51:42;;;;;;;11.53;6.62;;;;;;;7.42;100.00;98969.59;1671996;85;25558;-49
2023/01/05 08:54:11;;;;;;;11.63;6.90;;;;;;;7.40;100.00;98975.03;1672142;85;25476;-48
2023/01/05 08:56:42;;;;;;;;;;;;;;;7.39;100.00;98964.84;1674579;85;27424;-49
2023/01/05 08:59:14;;;;;;;9.05;6.17;;;;;;;7.37;100.00;98968.41;1672025;85;25590;-48
2023/01/05 09:01:43;;;;;;;13.43;8.50;;;;;;;7.39;100.00;98978.29;1672202;85;25632;-49
2023/01/05 09:04:09;;;;;;;7.62;4.92;;;;;;;7.38;100.00;98986.11;1672212;85;25491;-49
2023/01/05 09:06:35;;;;;;;8.25;5.47;;;;;;;7.38;100.00;98981.30;1672084;85;25630;-49
2023/01/05 09:09:09;;;;;;;8.20;5.90;;;;;;;7.38;100.00;98994.19;1672051;85;27391;-49
2023/01/05 09:11:43;;;;;;;10.72;5.67;;;;;;;7.38;100.00;98997.44;1672067;85;25821;-47
2023/01/05 09:14:16;;;;;;;6.60;4.53;;;;;;;7.36;100.00;98997.75;1672081;85;25623;-47
2023/01/05 09:16:45;;;;;;;5.78;3.37;;;;;;;7.38;100.00;98996.09;1672108;85;25999;-48
2023/01/05 09:19:14;;;;;;;35.08;32.60;;;;;;;7.37;100.00;98989.13;1672052;85;25530;-49
2023/01/05 09:21:43;;;;;;;27.02;25.17;;;;;;;7.37;100.00;99005.26;1676043;85;27150;-48
2023/01/05 09:24:12;;;;;;;8.63;3.30;;;;;;;7.37;100.00;98993.97;1679425;85;25641;-49
2023/01/05 09:26:42;;;;;;;4.10;2.85;;;;;;;7.35;100.00;98998.84;1679389;85;25660;-48
2023/01/05 09:29:12;;;;;;;5.08;2.70;;;;;;;7.35;100.00;99005.58;1679434;85;25614;-48
2023/01/05 09:31:45;;;;;;;6.85;2.60;;;;;;;7.35;100.00;99021.72;1679496;85;25453;-48
2023/01/05 09:34:13;;;;;;;4.97;2.92;;;;;;;7.32;100.00;99007.58;1679358;85;27404;-48
2023/01/05 09:36:39;;;;;;;10.90;8.70;;;;;;;7.29;100.00;99009.55;1679355;85;25854;-51
2023/01/05 09:39:09;;;;;;;72.60;67.90;;;;;;;7.25;100.00;99007.25;1679451;85;25442;-49
2023/01/05 09:41:54;;;;;;;80.30;74.80;;;;;;;7.25;100.00;99025.54;1679320;85;25485;-47
2023/01/05 09:44:41;;;;;;;22.73;20.90;;;;;;;7.25;100.00;99013.44;1679510;85;25610;-47
2023/01/05 09:47:37;;;;;;;8.45;7.47;;;;;;;7.25;100.00;99022.85;1679447;85;28039;-49
2023/01/05 09:50:24;;;;;;;6.40;2.30;;;;;;;7.26;100.00;99006.93;1650789;85;25654;-50
2023/01/05 09:52:59;;;;;;;5.97;2.10;;;;;;;7.26;100.00;99026.33;1679425;85;25562;-48
2023/01/05 09:55:31;;;;;;;9.25;1.90;;;;;;;7.33;100.00;99029.88;1679352;85;25619;-52
2023/01/05 09:58:03;;;;;;;7.37;2.22;;;;;;;7.48;100.00;99032.86;1650587;85;25653;-50
2023/01/05 10:00:37;;;;;;;6.78;3.08;;;;;;;7.76;100.00;99026.32;1677784;85;27269;-49
2023/01/05 10:03:20;;;;;;;6.00;2.30;;;;;;;8.13;100.00;99034.77;1679327;85;25584;-47
2023/01/05 10:05:52;;;;;;;8.65;2.27;;;;;;;8.22;100.00;99025.54;1679397;85;25430;-47
2023/01/05 10:08:35;;;;;;;7.50;2.40;;;;;;;8.17;99.81;99023.56;1679330;85;25563;-49
2023/01/05 10:14:42;;;;;;;3.08;2.52;;;;;;;8.07;97.82;99020.69;1679334;85;27314;-47
2023/01/05 10:17:19;;;;;;;6.00;2.62;;;;;;;8.14;99.36;99030.94;1679336;85;25652;-48
2023/01/05 10:19:52;;;;;;;5.22;2.70;;;;;;;8.24;98.21;99030.61;1679478;85;25508;-48
2023/01/05 10:22:44;;;;;;;6.25;5.53;;;;;;;8.37;98.71;99028.78;1662553;85;27432;-48
2023/01/05 10:25:35;;;;;;;2.92;1.70;;;;;;;8.34;97.78;99017.30;1653899;86;25595;-47
2023/01/05 10:28:40;;;;;;;4.62;2.33;;;;;;;8.24;97.00;99029.26;1654092;86;27345;-47
2023/01/05 10:31:30;;;;;;;4.35;2.60;;;;;;;8.16;96.16;99021.44;1654163;86;25473;-49
2023/01/05 10:34:01;;;;;;;;;;;;;;;8.00;96.00;99030.62;1649342;86;25252;-47
2023/01/05 10:36:45;;;;;;;6.92;5.08;;;;;;;7.97;95.74;99035.86;1653083;86;27560;-47
2023/01/05 10:39:47;;;;;;;16.57;15.18;;;;;;;7.95;95.48;99043.45;1654015;86;25512;-48
2023/01/05 10:42:32;;;;;;;70.52;65.72;;;;;;;7.88;95.21;99042.59;1654254;86;27576;-47
2023/01/05 10:45:05;;;;;;;78.70;73.40;;;;;;;7.80;95.37;99034.78;1651645;86;25813;-51
2023/01/05 10:47:40;;;;;;;79.05;73.72;;;;;;;7.79;95.11;99037.80;1654188;86;25681;-47
2023/01/05 10:50:34;;;;;;;79.67;74.42;;;;;;;7.78;95.64;99034.32;1654166;86;25654;-49
2023/01/05 10:53:12;;;;;;;79.22;73.90;;;;;;;7.81;96.25;99033.66;1648140;86;25579;-49
2023/01/05 10:56:03;;;;;;;80.65;74.95;;;;;;;7.84;96.15;99029.55;1654286;86;28032;-50
2023/01/05 10:58:37;;;;;;;4.40;2.33;;;;;;;7.88;96.30;99034.52;1654153;86;25604;-47
2023/01/05 11:01:26;;;;;;;7.55;3.10;;;;;;;7.89;96.16;99035.33;1668833;85;25643;-46
2023/01/05 11:04:07;;;;;;;10.10;3.17;;;;;;;7.89;95.50;99036.67;1669060;86;25505;-47
2023/01/05 11:06:37;;;;;;;7.33;3.22;;;;;;;7.85;95.59;99040.56;1647293;86;25535;-49
2023/01/05 11:09:17;;;;;;;7.33;3.05;;;;;;;7.84;95.82;99040.31;1668759;85;28068;-50
2023/01/05 11:11:57;;;;;;;7.92;3.35;;;;;;;7.79;95.58;99041.83;1668849;86;25655;-48
2023/01/05 11:14:28;;;;;;;8.98;3.70;;;;;;;7.72;94.78;99040.98;1668910;86;25594;-48
2023/01/05 11:17:03;;;;;;;9.90;4.08;;;;;;;7.69;94.99;99038.92;1667801;85;25582;-46
2023/01/05 11:19:37;;;;;;;7.12;3.50;;;;;;;7.66;95.07;99029.59;1668089;85;25630;-46
2023/01/05 11:22:04;;;;;;;10.48;3.85;;;;;;;7.63;95.05;99033.48;1667938;84;27935;-46
2023/01/05 11:24:35;;;;;;;12.85;4.30;;;;;;;7.60;94.66;99037.59;1668672;86;26703;-46
2023/01/05 11:27:24;;;;;;;12.70;4.87;;;;;;;7.57;94.98;99036.88;1668826;86;25613;-48
2023/01/05 11:30:17;;;;;;;8.93;3.47;;;;;;;7.54;94.95;99040.20;1668838;86;25409;-47
2023/01/05 11:32:47;;;;;;;11.38;5.08;;;;;;;7.53;94.82;99027.09;1665546;85;25682;-47
2023/01/05 11:35:35;;;;;;;8.55;4.20;;;;;;;7.54;95.15;99014.64;1668784;85;27338;-47
2023/01/05 11:38:09;;;;;;;7.50;4.22;;;;;;;7.66;95.75;99026.09;1667150;86;25729;-48
2023/01/05 11:40:36;;;;;;;40.40;37.25;;;;;;;7.79;94.57;99022.42;1667989;85;25620;-47
2023/01/05 11:43:11;;;;;;;14.78;6.17;;;;;;;7.86;94.85;99028.10;1644460;86;25533;-47
2023/01/05 11:45:55;;;;;;;19.48;7.53;;;;;;;7.91;94.40;99029.84;1668885;86;25652;-46
2023/01/05 11:48:32;;;;;;;11.70;4.55;;;;;;;7.95;94.10;99031.33;1658742;86;27180;-46
2023/01/05 11:51:01;;;;;;;7.72;4.15;;;;;;;7.92;93.72;99026.61;1668707;86;25791;-47
2023/01/05 11:53:39;;;;;;;10.53;4.60;;;;;;;7.91;93.23;99033.09;1668836;86;25581;-48
2023/01/05 11:56:23;;;;;;;14.13;4.60;;;;;;;7.92;93.66;99036.81;1668834;86;25610;-46
2023/01/05 11:58:56;;;;;;;15.93;5.95;;;;;;;7.90;92.81;99043.62;1668832;86;25418;-49
2023/01/05 12:02:11;;;;;;;13.40;5.42;;;;;;;7.90;93.12;99031.50;1643825;87;27074;-47
2023/01/05 12:04:53;;;;;;;9.43;4.90;;;;;;;7.92;93.13;99028.73;1673382;85;25472;-46
2023/01/05 12:07:35;;;;;;;12.75;5.40;;;;;;;7.89;92.67;99035.33;1673588;85;25431;-47
2023/01/05 12:10:27;;;;;;;10.53;5.05;;;;;;;7.85;91.65;99017.11;1673510;85;26103;-46
2023/01/05 12:13:26;;;;;;;11.63;5.17;;;;;;;7.86;92.11;99040.22;1645470;87;25617;-48
2023/01/05 12:16:28;;;;;;;13.00;5.97;;;;;;;7.85;91.49;99040.56;1628586;88;27438;-50
2023/01/05 12:19:26;;;;;;;13.60;5.70;;;;;;;7.83;92.05;99040.07;1598445;88;25712;-46
2023/01/05 12:22:37;;;;;;;9.08;5.17;;;;;;;7.81;92.08;99045.77;1636991;86;25485;-47
2023/01/05 12:25:54;;;;;;;11.25;4.33;;;;;;;7.80;91.69;99033.44;1633708;87;25843;-48
2023/01/05 12:28:56;;;;;;;9.10;3.60;;;;;;;7.79;91.97;99046.66;1630393;88;25708;-47
2023/01/05 12:31:37;;;;;;;8.88;3.75;;;;;;;7.76;91.13;99050.55;1628267;88;27433;-47
2023/01/05 12:34:37;;;;;;;11.88;3.80;;;;;;;7.72;90.22;99046.92;1629934;88;25873;-45
2023/01/05 12:37:29;;;;;;;11.00;4.08;;;;;;;7.69;91.18;99048.91;1629660;88;25524;-47
2023/01/05 12:40:19;;;;;;;10.25;6.35;;;;;;;7.66;90.88;99041.71;1630418;88;25492;-45